createdAt,value
2023-04-02T00:00:18.540Z,5.90
2023-04-02T00:03:09.481Z,6.60
2023-04-02T00:05:51.188Z,6.80
2023-04-02T00:08:27.437Z,7.00
2023-04-02T00:10:59.878Z,7.80
2023-04-02T00:13:35.498Z,6.60
2023-04-02T00:16:08.981Z,6.30
2023-04-02T00:18:43.240Z,5.50
2023-04-02T00:21:20.324Z,6.20
2023-04-02T00:26:32.164Z,5.90
2023-04-02T00:29:03.927Z,6.20
2023-04-02T00:31:35.199Z,5.30
2023-04-02T00:34:07.816Z,6.00
2023-04-02T00:36:38.645Z,6.60
2023-04-02T00:39:13.645Z,6.20
2023-04-02T00:41:46.862Z,7.20
2023-04-02T00:44:21.734Z,7.20
2023-04-02T00:46:53.557Z,6.30
2023-04-02T00:49:27.888Z,7.10
2023-04-02T00:52:01.651Z,6.00
2023-04-02T00:54:37.987Z,7.40
2023-04-02T00:57:17.531Z,7.90
2023-04-02T00:59:56.928Z,11.30
2023-04-02T01:02:30.609Z,11.90
2023-04-02T01:05:02.858Z,13.20
2023-04-02T01:07:47.928Z,11.70
2023-04-02T01:10:43.011Z,13.60
2023-04-02T01:13:23.838Z,11.90
2023-04-02T01:15:58.457Z,11.60
2023-04-02T01:18:46.082Z,11.70
2023-04-02T01:24:01.905Z,10.30
2023-04-02T01:26:50.962Z,10.10
2023-04-02T01:29:22.333Z,9.90
2023-04-02T01:31:53.677Z,8.90
2023-04-02T01:34:27.334Z,7.80
2023-04-02T01:37:07.402Z,7.40
2023-04-02T01:39:46.886Z,8.20
2023-04-02T01:42:21.679Z,7.80
2023-04-02T01:44:53.006Z,7.30
2023-04-02T01:47:25.534Z,8.40
2023-04-02T01:49:59.054Z,7.50
2023-04-02T01:52:39.089Z,8.70
2023-04-02T01:55:12.848Z,7.80
2023-04-02T01:57:44.705Z,7.90
2023-04-02T02:00:18.832Z,9.50
2023-04-02T02:02:51.582Z,9.40
2023-04-02T02:05:24.003Z,8.70
2023-04-02T02:07:56.391Z,9.40
2023-04-02T02:10:29.889Z,9.60
2023-04-02T02:13:00.922Z,10.30
2023-04-02T02:15:34.452Z,8.60
2023-04-02T02:18:06.867Z,9.40
2023-04-02T02:20:37.969Z,8.70
2023-04-02T02:23:10.384Z,9.20
2023-04-02T02:25:42.206Z,8.50
2023-04-02T02:28:16.502Z,8.40
2023-04-02T02:30:48.114Z,7.90
2023-04-02T02:33:22.459Z,8.60
2023-04-02T02:35:57.441Z,7.60
2023-04-02T02:38:51.843Z,8.90
2023-04-02T02:41:29.192Z,8.50
2023-04-02T02:44:03.087Z,8.10
2023-04-02T02:46:34.554Z,9.50
2023-04-02T02:49:05.950Z,9.20
2023-04-02T02:51:43.062Z,9.70
2023-04-02T02:54:13.778Z,9.00
2023-04-02T02:56:48.043Z,10.80
2023-04-02T02:59:19.308Z,9.50
2023-04-02T03:01:49.710Z,10.40
2023-04-02T03:04:23.371Z,9.70
2023-04-02T03:06:55.970Z,10.40
2023-04-02T03:09:34.887Z,10.40
2023-04-02T03:12:09.662Z,9.30
2023-04-02T03:14:43.986Z,9.00
2023-04-02T03:17:19.136Z,9.70
2023-04-02T03:19:53.075Z,8.40
2023-04-02T03:22:27.054Z,7.80
2023-04-02T03:25:00.533Z,7.70
2023-04-02T03:27:34.998Z,6.20
2023-04-02T03:30:28.678Z,7.30
2023-04-02T03:33:02.673Z,6.70
2023-04-02T03:35:39.831Z,6.60
2023-04-02T03:38:17.360Z,6.60
2023-04-02T03:41:00.110Z,6.30
2023-04-02T03:43:33.375Z,6.70
2023-04-02T03:46:10.775Z,6.40
2023-04-02T03:48:43.420Z,7.10
2023-04-02T03:51:18.655Z,7.50
2023-04-02T03:53:51.544Z,9.10
2023-04-02T03:56:28.307Z,8.50
2023-04-02T03:59:06.310Z,8.40
2023-04-02T04:01:42.960Z,9.40
2023-04-02T04:04:16.966Z,9.70
2023-04-02T04:06:52.122Z,8.60
2023-04-02T04:09:26.086Z,9.90
2023-04-02T04:12:02.899Z,9.50
2023-04-02T04:14:38.369Z,9.00
2023-04-02T04:17:15.511Z,8.50
2023-04-02T04:19:49.385Z,6.50
2023-04-02T04:22:21.329Z,6.90
2023-04-02T04:24:51.728Z,7.90
2023-04-02T04:27:33.315Z,6.20
2023-04-02T04:30:05.695Z,7.90
2023-04-02T04:32:38.804Z,6.90
2023-04-02T04:35:17.167Z,7.50
2023-04-02T04:37:49.548Z,7.70
2023-04-02T04:40:23.484Z,7.40
2023-04-02T04:42:56.242Z,8.10
2023-04-02T04:45:36.922Z,7.90
2023-04-02T04:48:14.328Z,9.20
2023-04-02T04:50:51.447Z,8.50
2023-04-02T04:53:24.891Z,8.80
2023-04-02T04:56:01.330Z,8.00
2023-04-02T04:58:41.630Z,8.60
2023-04-02T05:01:14.659Z,9.50
2023-04-02T05:03:47.397Z,10.30
2023-04-02T05:06:24.615Z,11.10
2023-04-02T05:08:58.293Z,10.60
2023-04-02T05:11:33.017Z,12.10
2023-04-02T05:14:06.302Z,10.10
2023-04-02T05:16:40.748Z,12.20
2023-04-02T05:19:14.920Z,11.60
2023-04-02T05:21:48.143Z,11.40
2023-04-02T05:24:44.969Z,11.00
2023-04-02T05:27:24.087Z,12.20
2023-04-02T05:30:00.217Z,12.20
2023-04-02T05:32:32.790Z,12.00
2023-04-02T05:35:06.281Z,9.80
2023-04-02T05:37:36.838Z,10.90
2023-04-02T05:40:16.241Z,10.20
2023-04-02T05:42:50.294Z,9.90
2023-04-02T05:45:26.882Z,10.30
2023-04-02T05:48:01.974Z,12.50
2023-04-02T05:50:37.081Z,10.80
2023-04-02T05:53:11.931Z,11.00
2023-04-02T05:55:51.892Z,11.60
2023-04-02T06:01:12.500Z,11.20
2023-04-02T06:03:47.610Z,9.80
2023-04-02T06:06:23.871Z,11.50
2023-04-02T06:08:59.655Z,12.20
2023-04-02T06:11:32.454Z,13.30
2023-04-02T06:14:04.573Z,13.60
2023-04-02T06:16:37.990Z,13.20
2023-04-02T06:19:11.794Z,12.00
2023-04-02T06:21:46.860Z,10.50
2023-04-02T06:24:19.260Z,13.50
2023-04-02T06:26:54.244Z,12.30
2023-04-02T06:29:29.848Z,11.20
2023-04-02T06:32:02.216Z,11.10
2023-04-02T06:34:33.330Z,9.80
2023-04-02T06:37:09.250Z,9.60
2023-04-02T06:39:39.646Z,9.80
2023-04-02T06:42:14.402Z,10.30
2023-04-02T06:44:45.412Z,9.00
2023-04-02T06:47:23.391Z,9.00
2023-04-02T06:49:57.733Z,9.40
2023-04-02T06:52:33.339Z,7.70
2023-04-02T06:55:18.057Z,9.70
2023-04-02T06:57:48.858Z,8.50
2023-04-02T07:00:29.386Z,8.80
2023-04-02T07:03:02.937Z,8.90
2023-04-02T07:05:33.547Z,8.50
2023-04-02T07:08:04.403Z,8.90
2023-04-02T07:10:36.364Z,7.90
2023-04-02T07:13:08.240Z,9.10
2023-04-02T07:15:39.382Z,8.20
2023-04-02T07:18:12.843Z,9.10
2023-04-02T07:20:43.290Z,8.00
2023-04-02T07:23:15.793Z,8.20
2023-04-02T07:25:48.240Z,7.90
2023-04-02T07:28:19.940Z,8.10
2023-04-02T07:30:52.750Z,8.10
2023-04-02T07:33:25.808Z,8.20
2023-04-02T07:35:57.703Z,8.50
2023-04-02T07:38:28.076Z,7.70
2023-04-02T07:40:58.768Z,9.70
2023-04-02T07:43:30.693Z,7.30
2023-04-02T07:46:01.515Z,6.80
2023-04-02T07:48:32.422Z,7.70
2023-04-02T07:51:04.569Z,7.00
2023-04-02T07:53:38.891Z,7.50
2023-04-02T07:56:16.417Z,7.30
2023-04-02T07:58:47.125Z,7.30
2023-04-02T08:01:20.756Z,7.00
2023-04-02T08:03:54.170Z,6.80
2023-04-02T08:06:27.211Z,5.20
2023-04-02T08:08:58.462Z,5.90
2023-04-02T08:11:31.817Z,5.80
2023-04-02T08:14:03.009Z,5.70
2023-04-02T08:16:47.766Z,4.40
2023-04-02T08:19:20.221Z,4.60
2023-04-02T08:21:51.725Z,4.90
2023-04-02T08:24:22.607Z,4.90
2023-04-02T08:26:54.425Z,5.20
2023-04-02T08:29:29.316Z,5.60
2023-04-02T08:32:00.254Z,5.70
2023-04-02T08:34:31.703Z,5.50
2023-04-02T08:37:02.528Z,6.00
2023-04-02T08:39:35.072Z,6.70
2023-04-02T08:42:12.976Z,6.10
2023-04-02T08:44:52.954Z,6.10
2023-04-02T08:47:26.253Z,5.20
2023-04-02T08:50:00.892Z,7.10
2023-04-02T08:52:38.513Z,6.00
2023-04-02T08:55:21.100Z,6.70
2023-04-02T08:58:10.250Z,5.70
2023-04-02T09:00:52.372Z,5.90
2023-04-02T09:03:29.621Z,7.00
2023-04-02T09:06:01.140Z,6.40
2023-04-02T09:08:33.085Z,6.10
2023-04-02T09:11:11.152Z,7.60
2023-04-02T09:13:46.321Z,6.90
2023-04-02T09:16:23.430Z,5.80
2023-04-02T09:18:58.367Z,5.40
2023-04-02T09:21:39.947Z,5.40
2023-04-02T09:24:13.486Z,5.90
2023-04-02T09:26:45.012Z,5.30
2023-04-02T09:29:39.571Z,5.70
2023-04-02T09:32:22.000Z,8.30
2023-04-02T09:35:24.442Z,6.60
2023-04-02T09:38:31.837Z,7.10
2023-04-02T09:41:06.767Z,6.70
2023-04-02T09:43:39.035Z,7.50
2023-04-02T09:46:29.229Z,8.30
2023-04-02T09:49:03.787Z,5.10
2023-04-02T09:51:36.346Z,7.10
2023-04-02T09:54:17.125Z,6.20
2023-04-02T09:57:02.736Z,6.00
2023-04-02T09:59:33.398Z,6.60
2023-04-02T10:02:04.974Z,6.20
2023-04-02T10:04:44.081Z,6.40
2023-04-02T10:07:35.498Z,7.60
2023-04-02T10:10:18.520Z,7.00
2023-04-02T10:12:53.775Z,6.60
2023-04-02T10:15:28.450Z,6.30
2023-04-02T10:18:06.525Z,6.70
2023-04-02T10:20:50.586Z,5.60
2023-04-02T10:23:24.292Z,6.00
2023-04-02T10:25:59.429Z,6.10
2023-04-02T10:28:51.074Z,6.90
2023-04-02T10:31:25.751Z,6.60
2023-04-02T10:34:02.249Z,7.20
2023-04-02T10:36:45.169Z,8.00
2023-04-02T10:39:17.840Z,7.60
2023-04-02T10:41:52.904Z,7.20
2023-04-02T10:44:39.343Z,8.30
2023-04-02T10:47:27.311Z,5.60
2023-04-02T10:50:08.295Z,6.70
2023-04-02T10:52:42.364Z,6.70
2023-04-02T10:55:19.234Z,7.60
2023-04-02T10:57:50.250Z,6.50
2023-04-02T11:00:25.309Z,6.10
2023-04-02T11:02:57.815Z,8.50
2023-04-02T11:05:36.657Z,7.90
2023-04-02T11:08:11.610Z,7.00
2023-04-02T11:10:47.626Z,6.80
2023-04-02T11:13:35.988Z,6.50
2023-04-02T11:16:07.430Z,6.50
2023-04-02T11:18:38.973Z,6.20
2023-04-02T11:21:17.264Z,7.40
2023-04-02T11:24:01.095Z,6.80
2023-04-02T11:26:38.270Z,7.10
2023-04-02T11:29:25.833Z,8.60
2023-04-02T11:32:33.694Z,7.30
2023-04-02T11:35:30.945Z,7.00
2023-04-02T11:38:04.429Z,6.10
2023-04-02T11:40:51.977Z,7.90
2023-04-02T11:43:52.875Z,8.90
2023-04-02T11:46:46.652Z,6.80
2023-04-02T11:49:35.634Z,5.50
2023-04-02T11:52:20.417Z,5.60
2023-04-02T11:54:58.735Z,4.80
2023-04-02T11:57:38.178Z,5.30
2023-04-02T12:00:21.981Z,7.10
2023-04-02T12:03:03.363Z,6.90
2023-04-02T12:05:37.509Z,7.40
2023-04-02T12:08:19.082Z,8.90
2023-04-02T12:10:56.194Z,9.60
2023-04-02T12:13:53.333Z,7.80
2023-04-02T12:16:25.198Z,9.50
2023-04-02T12:18:55.700Z,6.90
2023-04-02T12:21:28.332Z,6.00
2023-04-02T12:23:59.830Z,6.90
2023-04-02T12:26:37.119Z,8.10
2023-04-02T12:29:25.956Z,5.80
2023-04-02T12:31:59.996Z,5.60
2023-04-02T12:34:31.933Z,5.70
2023-04-02T12:37:03.992Z,6.70
2023-04-02T12:39:35.159Z,6.40
2023-04-02T12:42:06.334Z,8.30
2023-04-02T12:44:37.013Z,9.30
2023-04-02T12:47:07.878Z,7.10
2023-04-02T12:49:40.140Z,8.10
2023-04-02T12:52:12.638Z,9.00
2023-04-02T12:54:48.060Z,8.00
2023-04-02T12:57:36.276Z,6.00
2023-04-02T13:00:31.791Z,12.30
2023-04-02T13:03:18.543Z,8.20
2023-04-02T13:05:53.309Z,7.60
2023-04-02T13:08:27.531Z,6.60
2023-04-02T13:11:00.156Z,7.70
2023-04-02T13:13:33.750Z,7.30
2023-04-02T13:16:20.114Z,8.30
2023-04-02T13:18:51.517Z,7.10
2023-04-02T13:21:28.440Z,8.30
2023-04-02T13:23:59.354Z,8.30
2023-04-02T13:26:30.562Z,8.60
2023-04-02T13:29:03.102Z,8.20
2023-04-02T13:31:34.425Z,8.70
2023-04-02T13:34:05.990Z,7.20
2023-04-02T13:36:38.977Z,7.50
2023-04-02T13:39:09.300Z,7.10
2023-04-02T13:41:42.886Z,8.10
2023-04-02T13:44:21.875Z,9.20
2023-04-02T13:46:52.634Z,7.70
2023-04-02T13:49:24.359Z,8.70
2023-04-02T13:51:57.938Z,9.40
2023-04-02T13:54:34.838Z,8.60
2023-04-02T13:57:13.868Z,7.60
2023-04-02T13:59:47.098Z,9.50
2023-04-02T14:02:23.014Z,9.30
2023-04-02T14:04:56.653Z,8.80
2023-04-02T14:07:41.352Z,8.10
2023-04-02T14:10:27.112Z,7.70
2023-04-02T14:13:14.284Z,7.90
2023-04-02T14:15:59.342Z,9.40
2023-04-02T14:18:46.751Z,9.70
2023-04-02T14:24:07.453Z,9.10
2023-04-02T14:26:45.602Z,9.20
2023-04-02T14:29:20.764Z,8.40
2023-04-02T14:31:58.213Z,7.80
2023-04-02T14:34:36.953Z,8.50
2023-04-02T14:37:13.948Z,6.30
2023-04-02T14:39:50.164Z,6.40
2023-04-02T14:42:29.143Z,6.50
2023-04-02T14:45:19.723Z,4.50
2023-04-02T14:47:53.201Z,5.60
2023-04-02T14:50:28.176Z,6.10
2023-04-02T14:53:06.182Z,5.10
2023-04-02T14:55:39.762Z,5.20
2023-04-02T14:58:14.946Z,6.60
2023-04-02T15:00:50.238Z,5.90
2023-04-02T15:03:24.670Z,6.10
2023-04-02T15:05:56.926Z,5.80
2023-04-02T15:08:29.135Z,5.40
2023-04-02T15:11:05.875Z,5.20
2023-04-02T15:13:44.379Z,5.90
2023-04-02T15:16:19.387Z,6.60
2023-04-02T15:18:53.223Z,8.30
2023-04-02T15:21:55.848Z,8.20
2023-04-02T15:24:35.319Z,6.90
2023-04-02T15:27:24.940Z,8.70
2023-04-02T15:30:01.232Z,6.10
2023-04-02T15:32:40.763Z,8.80
2023-04-02T15:35:33.910Z,8.40
2023-04-02T15:38:11.021Z,6.60
2023-04-02T15:40:51.326Z,6.70
2023-04-02T15:43:25.795Z,8.20
2023-04-02T15:46:08.134Z,8.20
2023-04-02T15:48:54.051Z,8.90
2023-04-02T15:51:38.013Z,8.60
2023-04-02T15:54:20.884Z,8.20
2023-04-02T15:56:57.265Z,7.90
2023-04-02T15:59:44.733Z,7.80
2023-04-02T16:04:54.040Z,9.00
2023-04-02T16:07:46.276Z,8.60
2023-04-02T16:10:33.901Z,8.50
2023-04-02T16:13:18.464Z,10.10
2023-04-02T16:15:51.964Z,8.60
2023-04-02T16:18:31.543Z,8.70
2023-04-02T16:21:04.788Z,8.40
2023-04-02T16:23:38.570Z,9.90
2023-04-02T16:26:27.994Z,10.80
2023-04-02T16:29:24.731Z,11.00
2023-04-02T16:32:01.392Z,11.40
2023-04-02T16:34:40.105Z,10.40
2023-04-02T16:37:15.644Z,13.60
2023-04-02T16:39:56.020Z,14.20
2023-04-02T16:42:49.539Z,11.90
2023-04-02T16:45:29.537Z,12.90
2023-04-02T16:48:14.929Z,12.80
2023-04-02T16:50:56.445Z,12.20
2023-04-02T16:57:49.259Z,10.50
2023-04-02T17:00:27.778Z,9.00
2023-04-02T17:03:15.069Z,8.80
2023-04-02T17:05:59.310Z,10.00
2023-04-02T17:08:47.560Z,9.20
2023-04-02T17:11:38.616Z,9.00
2023-04-02T17:14:23.940Z,7.10
2023-04-02T17:16:59.952Z,6.90
2023-04-02T17:19:32.272Z,7.10
2023-04-02T17:22:07.553Z,5.80
2023-04-02T17:24:41.209Z,8.00
2023-04-02T17:27:19.923Z,8.70
2023-04-02T17:29:53.528Z,8.80
2023-04-02T17:32:27.950Z,8.00
2023-04-02T17:35:00.164Z,7.50
2023-04-02T17:37:34.278Z,8.20
2023-04-02T17:40:31.783Z,9.20
2023-04-02T17:43:08.728Z,9.00
2023-04-02T17:45:45.476Z,8.10
2023-04-02T17:48:21.331Z,8.50
2023-04-02T17:50:59.570Z,7.30
2023-04-02T17:53:41.065Z,8.30
2023-04-02T17:56:33.559Z,8.80
2023-04-02T17:59:15.800Z,6.70
2023-04-02T18:01:50.707Z,8.10
2023-04-02T18:04:33.055Z,7.60
2023-04-02T18:07:13.799Z,7.20
2023-04-02T18:09:47.920Z,8.10
2023-04-02T18:12:28.587Z,7.70
2023-04-02T18:15:14.675Z,8.20
2023-04-02T18:17:50.823Z,8.60
2023-04-02T18:20:28.107Z,9.00
2023-04-02T18:23:06.193Z,8.50
2023-04-02T18:25:55.412Z,10.10
2023-04-02T18:28:38.661Z,8.70
2023-04-02T18:31:36.074Z,9.30
2023-04-02T18:34:28.403Z,9.00
2023-04-02T18:37:09.162Z,9.30
2023-04-02T18:39:47.730Z,10.30
2023-04-02T18:42:30.021Z,10.60
2023-04-02T18:45:08.626Z,9.30
2023-04-02T18:47:42.761Z,10.90
2023-04-02T18:50:18.439Z,10.70
2023-04-02T18:52:53.880Z,10.20
2023-04-02T18:55:26.896Z,10.50
2023-04-02T18:58:01.883Z,9.40
2023-04-02T19:00:36.326Z,9.90
2023-04-02T19:03:13.023Z,10.30
2023-04-02T19:05:46.907Z,10.40
2023-04-02T19:08:20.330Z,10.80
2023-04-02T19:10:53.525Z,10.60
2023-04-02T19:13:25.280Z,10.80
2023-04-02T19:16:40.122Z,10.10
2023-04-02T19:19:15.847Z,10.50
2023-04-02T19:22:00.003Z,8.80
2023-04-02T19:24:44.333Z,9.30
2023-04-02T19:27:22.800Z,9.20
2023-04-02T19:30:04.506Z,10.00
2023-04-02T19:32:41.687Z,8.90
2023-04-02T19:37:46.848Z,8.20
2023-04-02T19:40:24.899Z,9.90
2023-04-02T19:42:56.876Z,8.70
2023-04-02T19:45:32.409Z,9.20
2023-04-02T19:48:10.472Z,7.70
2023-04-02T19:50:43.857Z,8.90
2023-04-02T19:53:14.761Z,8.00
2023-04-02T19:55:48.132Z,6.60
2023-04-02T19:58:26.649Z,7.50
2023-04-02T20:00:57.706Z,8.60
2023-04-02T20:03:28.563Z,9.60
2023-04-02T20:05:59.733Z,9.80
2023-04-02T20:08:31.522Z,9.90
2023-04-02T20:11:02.505Z,7.80
2023-04-02T20:13:33.754Z,8.50
2023-04-02T20:16:05.537Z,8.30
2023-04-02T20:18:37.396Z,9.60
2023-04-02T20:21:09.060Z,9.40
2023-04-02T20:23:39.268Z,9.50
2023-04-02T20:26:10.309Z,9.00
2023-04-02T20:28:41.304Z,8.80
2023-04-02T20:31:13.210Z,8.30
2023-04-02T20:33:45.186Z,8.30
2023-04-02T20:36:17.606Z,8.00
2023-04-02T20:38:47.978Z,8.40
2023-04-02T20:41:18.261Z,7.50
2023-04-02T20:43:49.513Z,8.20
2023-04-02T20:46:19.963Z,8.50
2023-04-02T20:48:50.475Z,8.10
2023-04-02T20:51:21.480Z,9.60
2023-04-02T20:53:51.965Z,8.30
2023-04-02T20:56:23.663Z,9.00
2023-04-02T20:58:54.486Z,10.00
2023-04-02T21:01:26.591Z,10.80
2023-04-02T21:03:57.912Z,10.10
2023-04-02T21:06:30.521Z,9.90
2023-04-02T21:09:01.077Z,9.50
2023-04-02T21:11:31.376Z,11.10
2023-04-02T21:14:01.960Z,10.60
2023-04-02T21:16:33.303Z,9.60
2023-04-02T21:19:05.942Z,10.80
2023-04-02T21:21:36.629Z,11.20
2023-04-02T21:24:09.138Z,10.40
2023-04-02T21:26:40.998Z,11.10
2023-04-02T21:29:12.866Z,10.50
2023-04-02T21:31:43.946Z,11.10
2023-04-02T21:34:16.834Z,11.80
2023-04-02T21:36:48.436Z,12.30
2023-04-02T21:39:20.975Z,11.90
2023-04-02T21:41:52.861Z,11.00
2023-04-02T21:44:24.204Z,11.60
2023-04-02T21:46:54.950Z,13.00
2023-04-02T21:49:26.063Z,10.40
2023-04-02T21:51:56.673Z,11.00
2023-04-02T21:54:27.056Z,9.60
2023-04-02T21:56:57.484Z,11.10
2023-04-02T21:59:27.910Z,11.30
2023-04-02T22:01:58.162Z,11.10
2023-04-02T22:04:30.308Z,11.80
2023-04-02T22:07:00.718Z,12.00
2023-04-02T22:09:31.149Z,11.10
2023-04-02T22:12:02.165Z,11.70
2023-04-02T22:14:32.833Z,12.10
2023-04-02T22:17:03.696Z,11.90
2023-04-02T22:19:34.266Z,10.60
2023-04-02T22:22:04.724Z,10.80
2023-04-02T22:24:35.472Z,11.00
2023-04-02T22:27:05.936Z,11.20
2023-04-02T22:29:36.554Z,11.70
2023-04-02T22:32:06.935Z,11.40
2023-04-02T22:34:39.496Z,11.70
2023-04-02T22:37:10.404Z,12.80
2023-04-02T22:39:40.728Z,12.20
2023-04-02T22:42:11.113Z,12.00
2023-04-02T22:44:41.449Z,12.50
2023-04-02T22:47:11.807Z,11.10
2023-04-02T22:49:42.210Z,13.20
2023-04-02T22:52:13.258Z,12.90
2023-04-02T22:54:43.546Z,12.60
2023-04-02T22:57:13.913Z,13.90
2023-04-02T22:59:44.253Z,13.60
2023-04-02T23:02:14.714Z,12.60
2023-04-02T23:04:45.128Z,12.50
2023-04-02T23:07:16.123Z,12.70
2023-04-02T23:09:46.388Z,11.60
2023-04-02T23:12:16.519Z,11.90
2023-04-02T23:14:46.919Z,12.00
2023-04-02T23:17:17.108Z,12.10
2023-04-02T23:19:47.350Z,12.60
2023-04-02T23:22:17.640Z,12.70
2023-04-02T23:24:48.404Z,11.60
2023-04-02T23:27:18.811Z,11.20
2023-04-02T23:29:49.387Z,12.70
2023-04-02T23:32:20.878Z,11.50
2023-04-02T23:34:51.534Z,11.10
2023-04-02T23:37:21.844Z,11.40
2023-04-02T23:39:52.599Z,11.10
2023-04-02T23:42:23.096Z,11.00
2023-04-02T23:44:53.995Z,11.70
2023-04-02T23:47:24.475Z,11.50
2023-04-02T23:49:54.719Z,11.50
2023-04-02T23:52:25.000Z,11.90
2023-04-02T23:54:55.268Z,11.70
2023-04-02T23:57:25.898Z,11.10
2023-04-02T23:59:56.000Z,9.20
